You are not logged in, Click here to log in
聖地牙哥國際機場SAN / KSAN 美國加利福尼亞州聖地牙哥
ICAO: KSAN Country: 美國加利福尼亞州聖地牙哥
Latitude: 32.7336 Longitude: -117.19
Total Arrivals: 10 Total Departures: 10
Latest Arrival: WN1473 (KSFO-KSAN)Arthur. Kung Latest Departure: WN2734 (KSAN-KAUS)Arthur. Kung
Scenery:
METAR : KSAN 080251Z 00000KT 10SM FEW032 BKN040 18/17 A3010 RMK AO2 SLP192 T01830172 55001

聖地牙哥國際機場SAN